Time;durP1;ratioP1;P1;durP2;ratioP2;P2;SDS_P1;SDS_P2;PMS_P1;PMS_P2;Temp;Humidity;BMP_temperature;BMP_pressure;BME280_temperature;BME280_humidity;BME280_pressure;Samples;Min_cycle;Max_cycle;Signal;HPM_P1;HPM_P2
2023/01/24 00:01:38;;;;;;;;;;;;;;;18.37;28.33;96786.81;10420542;28;3185;-47
2023/01/24 00:06:39;;;;;;;;;;;;;;;18.36;28.28;96800.16;10414756;28;3162;-46
2023/01/24 00:11:39;;;;;;;;;;;;;;;18.32;28.32;96806.91;10414193;28;3238;-46
2023/01/24 00:16:39;;;;;;;;;;;;;;;18.28;28.37;96806.56;10412345;28;3107;-47
2023/01/24 00:21:39;;;;;;;;;;;;;;;18.26;28.32;96811.25;10410262;28;3162;-46
2023/01/24 00:26:40;;;;;;;;;;;;;;;18.22;28.40;96815.38;10416742;28;3082;-49
2023/01/24 00:31:40;;;;;;;;;;;;;;;18.21;28.53;96823.50;10416018;28;3137;-47
2023/01/24 00:36:40;;;;;;;;;;;;;;;18.19;28.43;96815.03;10409822;28;3189;-47
2023/01/24 00:41:41;;;;;;;;;;;;;;;18.17;28.37;96817.09;10417682;28;3122;-46
2023/01/24 00:46:41;;;;;;;;;;;;;;;18.14;28.45;96823.63;10423342;28;3170;-47
2023/01/24 00:51:41;;;;;;;;;;;;;;;18.12;28.44;96824.88;10414256;28;3228;-49
2023/01/24 00:56:42;;;;;;;;;;;;;;;18.09;28.40;96823.53;10417781;28;3171;-47
2023/01/24 01:01:42;;;;;;;;;;;;;;;18.08;28.51;96821.91;10429352;28;3110;-49
2023/01/24 01:06:43;;;;;;;;;;;;;;;18.02;28.54;96827.28;10418184;28;3141;-47
2023/01/24 01:11:43;;;;;;;;;;;;;;;18.02;28.56;96830.72;10418761;28;3102;-47
2023/01/24 01:16:44;;;;;;;;;;;;;;;18.01;28.54;96834.34;10420141;28;3169;-46
2023/01/24 01:21:44;;;;;;;;;;;;;;;18.00;28.44;96837.22;10417073;28;3051;-47
2023/01/24 01:26:44;;;;;;;;;;;;;;;17.96;28.59;96829.00;10419457;28;3161;-48
2023/01/24 01:31:44;;;;;;;;;;;;;;;17.94;28.55;96838.13;10417940;28;3204;-48
2023/01/24 01:36:45;;;;;;;;;;;;;;;17.95;28.49;96837.13;10419959;28;3127;-47
2023/01/24 01:41:45;;;;;;;;;;;;;;;17.91;28.63;96826.28;10415613;28;3140;-48
2023/01/24 01:46:47;;;;;;;;;;;;;;;17.89;28.48;96823.88;10430145;28;3126;-46
2023/01/24 01:51:48;;;;;;;;;;;;;;;17.87;28.56;96831.19;10422567;28;3205;-46
2023/01/24 01:56:49;;;;;;;;;;;;;;;17.85;28.65;96830.63;10420473;28;3184;-47
2023/01/24 02:01:50;;;;;;;;;;;;;;;17.83;28.52;96835.31;10419387;28;3169;-48
2023/01/24 02:06:51;;;;;;;;;;;;;;;17.82;28.38;96840.78;10418085;28;3122;-48
2023/01/24 02:11:52;;;;;;;;;;;;;;;17.79;28.59;96836.78;10421894;28;3306;-46
2023/01/24 02:16:52;;;;;;;;;;;;;;;17.77;28.50;96838.84;10416128;28;3161;-46
2023/01/24 02:21:53;;;;;;;;;;;;;;;17.76;28.55;96836.47;10415787;28;3218;-48
2023/01/24 02:26:53;;;;;;;;;;;;;;;17.75;28.52;96835.66;10428256;28;3361;-48
2023/01/24 02:31:57;;;;;;;;;;;;;;;17.73;28.59;96827.22;10416534;28;3307;-46
2023/01/24 02:37:01;;;;;;;;;;;;;;;17.72;28.51;96830.84;10417458;28;3160;-45
2023/01/24 02:42:12;;;;;;;;;;;;;;;17.71;28.47;96831.91;10433313;28;3181;-47
2023/01/24 02:47:12;;;;;;;;;;;;;;;17.67;28.55;96828.13;10420868;28;3094;-47
2023/01/24 03:02:50;;;;;;;;;;;;;;;17.62;28.64;96824.63;10416277;28;3236;-47
2023/01/24 03:07:50;;;;;;;;;;;;;;;17.63;28.62;96826.19;10429535;28;3229;-46
2023/01/24 03:44:43;;;;;;;;;;;;;;;17.49;28.70;96851.00;10417097;28;3126;-46
2023/01/24 03:55:02;;;;;;;;;;;;;;;17.48;28.68;96863.31;10423505;28;3138;-47
2023/01/24 04:00:02;;;;;;;;;;;;;;;17.49;28.58;96869.38;10414738;28;3086;-48
2023/01/24 04:05:15;;;;;;;;;;;;;;;17.50;28.57;96869.16;10413575;28;3122;-52
2023/01/24 04:10:15;;;;;;;;;;;;;;;17.51;28.58;96859.47;10414799;28;3175;-47
2023/01/24 04:15:17;;;;;;;;;;;;;;;17.51;28.68;96857.66;10409180;28;3188;-50
2023/01/24 04:20:17;;;;;;;;;;;;;;;17.52;28.61;96861.06;10422917;28;3537;-46
2023/01/24 04:25:17;;;;;;;;;;;;;;;17.54;28.63;96854.56;10415854;28;3181;-48
2023/01/24 04:30:17;;;;;;;;;;;;;;;17.56;28.58;96851.72;10411733;28;3169;-46
2023/01/24 04:35:22;;;;;;;;;;;;;;;17.57;28.63;96854.13;10418074;28;3165;-52
2023/01/24 04:40:22;;;;;;;;;;;;;;;17.59;28.60;96857.31;10415229;28;3479;-47
2023/01/24 04:45:22;;;;;;;;;;;;;;;17.61;28.53;96854.47;10417402;28;3162;-49
2023/01/24 04:50:22;;;;;;;;;;;;;;;17.59;28.52;96857.31;10422078;28;3117;-46
2023/01/24 04:55:23;;;;;;;;;;;;;;;17.62;28.64;96851.59;10432464;28;3184;-49
2023/01/24 05:00:23;;;;;;;;;;;;;;;17.62;28.50;96858.69;10426912;28;3531;-46
2023/01/24 05:05:23;;;;;;;;;;;;;;;17.65;28.56;96852.97;10421187;28;3189;-53
2023/01/24 05:10:24;;;;;;;;;;;;;;;17.66;28.54;96868.47;10422797;28;3124;-46
2023/01/24 05:15:25;;;;;;;;;;;;;;;17.67;28.49;96864.03;10426004;28;3228;-46
2023/01/24 05:20:26;;;;;;;;;;;;;;;17.67;28.55;96859.59;10423983;28;3083;-48
2023/01/24 05:25:26;;;;;;;;;;;;;;;17.69;28.54;96867.22;10422188;28;3105;-50
2023/01/24 05:30:26;;;;;;;;;;;;;;;17.70;28.47;96866.22;10422231;28;3285;-47
2023/01/24 05:35:27;;;;;;;;;;;;;;;17.70;28.45;96868.84;10428043;28;3181;-48
2023/01/24 05:40:27;;;;;;;;;;;;;;;17.71;28.46;96876.47;10421030;28;3545;-46
2023/01/24 05:45:27;;;;;;;;;;;;;;;17.72;28.47;96883.28;10438089;28;3150;-47
2023/01/24 05:50:27;;;;;;;;;;;;;;;17.75;28.43;96879.44;10435983;28;3158;-47
2023/01/24 05:55:28;;;;;;;;;;;;;;;17.73;28.41;96895.41;10419492;28;3160;-48
2023/01/24 06:00:28;;;;;;;;;;;;;;;17.75;28.50;96888.09;10421360;28;3181;-46
2023/01/24 06:05:28;;;;;;;;;;;;;;;17.77;28.46;96895.72;10422664;28;3289;-48
2023/01/24 06:10:28;;;;;;;;;;;;;;;17.76;28.40;96897.53;10418065;28;3150;-47
2023/01/24 06:15:29;;;;;;;;;;;;;;;17.77;28.42;96895.72;10424243;28;3112;-48
2023/01/24 06:20:29;;;;;;;;;;;;;;;17.76;28.45;96900.16;10417697;28;3078;-48
2023/01/24 06:25:29;;;;;;;;;;;;;;;17.76;28.47;96910.66;10419188;28;3289;-47
2023/01/24 06:30:29;;;;;;;;;;;;;;;17.76;28.45;96915.91;10421081;28;3082;-46
2023/01/24 06:35:33;;;;;;;;;;;;;;;17.76;28.43;96921.16;10420668;28;3294;-47
2023/01/24 06:40:34;;;;;;;;;;;;;;;17.75;28.40;96919.56;10415161;28;3162;-45
2023/01/24 06:45:34;;;;;;;;;;;;;;;17.75;28.39;96927.44;10413235;28;3281;-47
2023/01/24 06:50:34;;;;;;;;;;;;;;;17.72;28.42;96935.75;10420397;28;3168;-48
2023/01/24 06:55:34;;;;;;;;;;;;;;;17.73;28.50;96939.97;10421828;28;3127;-51
2023/01/24 07:00:35;;;;;;;;;;;;;;;17.70;28.46;96937.03;10417111;28;3165;-48
2023/01/24 07:05:35;;;;;;;;;;;;;;;17.69;28.50;96941.47;10411357;28;3296;-46
2023/01/24 07:10:36;;;;;;;;;;;;;;;17.71;28.56;96938.59;10414731;28;3236;-46
2023/01/24 07:15:36;;;;;;;;;;;;;;;17.71;28.55;96949.91;10422394;28;3173;-49
2023/01/24 07:20:36;;;;;;;;;;;;;;;17.71;28.48;96949.91;10414358;28;3138;-47
2023/01/24 07:25:38;;;;;;;;;;;;;;;17.70;28.50;96950.91;10427346;28;3315;-46
2023/01/24 07:30:39;;;;;;;;;;;;;;;17.69;28.45;96951.94;10420012;28;3193;-46
2023/01/24 07:35:40;;;;;;;;;;;;;;;17.69;28.57;96959.00;10411133;28;3135;-47
2023/01/24 07:40:41;;;;;;;;;;;;;;;17.69;28.54;96959.81;10420077;28;3186;-49
2023/01/24 07:45:45;;;;;;;;;;;;;;;17.67;28.56;96959.25;10418936;28;3079;-46
2023/01/24 07:50:45;;;;;;;;;;;;;;;17.68;28.54;96966.06;10410845;28;3242;-50
2023/01/24 07:55:45;;;;;;;;;;;;;;;17.68;28.56;96967.91;10419643;28;3185;-46
2023/01/24 08:00:46;;;;;;;;;;;;;;;17.67;28.55;96980.22;10411954;28;3169;-46
2023/01/24 08:05:46;;;;;;;;;;;;;;;17.68;28.64;96986.28;10409841;28;3270;-49
2023/01/24 08:10:46;;;;;;;;;;;;;;;17.67;28.54;96990.72;10416161;28;3240;-46
2023/01/24 08:15:47;;;;;;;;;;;;;;;17.67;28.55;96989.91;10412615;28;3202;-49
2023/01/24 08:20:48;;;;;;;;;;;;;;;17.65;28.63;96998.00;10414003;28;3261;-47
2023/01/24 08:25:48;;;;;;;;;;;;;;;17.65;28.66;96990.13;10420602;28;3235;-46
2023/01/24 08:30:49;;;;;;;;;;;;;;;17.65;28.59;96998.00;10415330;28;3196;-46
2023/01/24 08:35:49;;;;;;;;;;;;;;;17.66;28.66;96999.59;10421184;28;3162;-47
2023/01/24 08:40:49;;;;;;;;;;;;;;;17.67;28.67;97005.63;10425678;28;3109;-47
2023/01/24 08:45:53;;;;;;;;;;;;;;;17.67;28.69;97014.31;10421155;28;3170;-47
2023/01/24 08:50:53;;;;;;;;;;;;;;;17.69;28.61;97016.69;10413712;28;3423;-48
2023/01/24 08:55:53;;;;;;;;;;;;;;;17.67;28.69;97014.31;10414365;28;3117;-50
2023/01/24 09:00:54;;;;;;;;;;;;;;;17.67;28.72;97019.56;10412717;28;3118;-46
2023/01/24 09:05:57;;;;;;;;;;;;;;;17.69;28.72;97025.38;10418289;28;3176;-47
2023/01/24 09:10:58;;;;;;;;;;;;;;;17.69;28.65;97021.94;10410852;28;3148;-46
2023/01/24 09:15:58;;;;;;;;;;;;;;;17.68;28.75;97023.75;10413914;28;3280;-46
2023/01/24 09:21:02;;;;;;;;;;;;;;;17.69;28.53;97029.81;10420176;28;3156;-48
2023/01/24 09:26:02;;;;;;;;;;;;;;;17.68;28.77;97038.72;10424687;28;3172;-46
2023/01/24 09:31:03;;;;;;;;;;;;;;;17.70;28.62;97041.91;10419876;28;3172;-46
2023/01/24 09:36:03;;;;;;;;;;;;;;;17.68;28.67;97042.13;10420980;28;3380;-50
2023/01/24 09:41:22;;;;;;;;;;;;;;;17.68;28.77;97043.97;10417660;28;3114;-46
2023/01/24 09:46:28;;;;;;;;;;;;;;;17.70;28.68;97045.31;10419522;28;3193;-48
2023/01/24 09:51:29;;;;;;;;;;;;;;;17.68;28.67;97044.72;10423311;28;3170;-48
2023/01/24 09:56:33;;;;;;;;;;;;;;;17.67;28.76;97037.91;10422343;28;3137;-47
2023/01/24 10:01:33;;;;;;;;;;;;;;;17.70;28.86;97044.53;10416597;28;3094;-47
2023/01/24 10:06:33;;;;;;;;;;;;;;;17.67;28.77;97042.34;10415955;28;3119;-46
2023/01/24 10:11:47;;;;;;;;;;;;;;;17.67;28.78;97043.16;10423451;28;3172;-49
2023/01/24 10:17:06;;;;;;;;;;;;;;;17.68;28.79;97049.97;10422742;28;3229;-47
2023/01/24 10:22:30;;;;;;;;;;;;;;;17.68;28.84;97044.72;10415805;28;3153;-46
2023/01/24 10:27:38;;;;;;;;;;;;;;;17.68;28.97;97043.97;10415560;28;3153;-50
2023/01/24 10:32:43;;;;;;;;;;;;;;;17.66;28.73;97046.78;10420574;28;3110;-46
2023/01/24 10:37:43;;;;;;;;;;;;;;;17.69;28.71;97045.53;10417843;28;3140;-46
2023/01/24 10:42:44;;;;;;;;;;;;;;;17.67;28.75;97043.16;10418848;28;3171;-48
2023/01/24 10:47:44;;;;;;;;;;;;;;;17.68;28.80;97044.72;10426134;28;3229;-46
2023/01/24 10:52:48;;;;;;;;;;;;;;;17.66;28.81;97036.28;10425303;28;3114;-47
2023/01/24 10:57:49;;;;;;;;;;;;;;;17.67;28.85;97029.22;10423722;28;3173;-48
2023/01/24 11:02:50;;;;;;;;;;;;;;;17.65;28.84;97029.47;10423546;28;3238;-46
2023/01/24 11:07:51;;;;;;;;;;;;;;;17.65;28.88;97026.84;10420815;28;3182;-50
2023/01/24 11:12:53;;;;;;;;;;;;;;;17.66;28.88;97014.53;10423634;28;3280;-47
2023/01/24 11:17:55;;;;;;;;;;;;;;;17.66;28.87;97014.53;10416839;28;3365;-47
2023/01/24 11:23:14;;;;;;;;;;;;;;;17.66;28.96;97019.78;10409855;28;3411;-47
2023/01/24 11:28:27;;;;;;;;;;;;;;;17.66;28.86;97014.53;10420569;28;3308;-46
2023/01/24 11:33:34;;;;;;;;;;;;;;;17.67;28.95;97013.50;10415670;28;3316;-46
2023/01/24 11:38:40;;;;;;;;;;;;;;;17.67;28.86;97010.88;10410728;28;3287;-47
2023/01/24 11:43:59;;;;;;;;;;;;;;;17.67;28.88;97008.25;10454969;28;3385;-47
2023/01/24 11:49:02;;;;;;;;;;;;;;;17.67;29.00;97003.00;10415715;28;3360;-47
2023/01/24 11:54:08;;;;;;;;;;;;;;;17.67;28.92;96998.56;10409774;28;3411;-47
2023/01/24 11:59:27;;;;;;;;;;;;;;;17.68;28.93;96999.38;10426208;28;3323;-48
2023/01/24 12:04:39;;;;;;;;;;;;;;;17.68;28.90;96994.13;10413263;28;3311;-51
2023/01/24 12:09:48;;;;;;;;;;;;;;;17.66;28.94;96999.59;10427635;28;3248;-46
2023/01/24 12:15:01;;;;;;;;;;;;;;;17.66;28.95;96989.09;10423837;28;3255;-50
2023/01/24 12:20:07;;;;;;;;;;;;;;;17.66;28.92;96983.84;10413717;28;3403;-47
2023/01/24 12:25:19;;;;;;;;;;;;;;;17.67;29.07;96982.03;10418811;28;3233;-46
2023/01/24 12:30:26;;;;;;;;;;;;;;;17.66;28.93;96975.97;10413163;28;3230;-49
2023/01/24 12:35:34;;;;;;;;;;;;;;;17.67;29.10;96976.78;10421036;28;3266;-49
2023/01/24 12:40:44;;;;;;;;;;;;;;;17.67;28.97;96968.94;10420287;28;3326;-47
2023/01/24 12:45:59;;;;;;;;;;;;;;;17.66;29.16;96964.72;10419081;28;3327;-48
2023/01/24 12:51:00;;;;;;;;;;;;;;;17.67;29.06;96961.88;10412062;28;3311;-48
2023/01/24 12:56:22;;;;;;;;;;;;;;;17.66;29.03;96954.22;10424805;28;3354;-49
2023/01/24 13:01:26;;;;;;;;;;;;;;;17.65;29.12;96960.50;10427928;28;3303;-47
2023/01/24 13:06:26;;;;;;;;;;;;;;;17.66;29.04;96956.84;10423871;28;3276;-46
2023/01/24 13:11:29;;;;;;;;;;;;;;;17.63;29.09;96955.47;10417578;28;3277;-46
2023/01/24 13:16:32;;;;;;;;;;;;;;;17.64;29.10;96964.91;10421658;28;3330;-47
2023/01/24 13:21:44;;;;;;;;;;;;;;;17.64;29.08;96946.56;10415903;28;3320;-49
2023/01/24 13:26:46;;;;;;;;;;;;;;;17.63;29.03;96950.22;10421636;28;3358;-48
2023/01/24 13:31:56;;;;;;;;;;;;;;;17.65;29.17;96950.81;10422637;28;3268;-49
2023/01/24 13:36:57;;;;;;;;;;;;;;;17.63;29.09;96952.84;10434632;28;3306;-47
2023/01/24 13:42:00;;;;;;;;;;;;;;;17.62;29.16;96956.47;10422641;28;3295;-48
2023/01/24 13:47:01;;;;;;;;;;;;;;;17.64;29.07;96953.66;10427986;28;3288;-47
2023/01/24 13:52:02;;;;;;;;;;;;;;;17.64;29.11;96959.69;10421375;28;3252;-47
2023/01/24 13:57:06;;;;;;;;;;;;;;;17.66;29.08;96972.59;10419145;28;3434;-47
2023/01/24 14:02:25;;;;;;;;;;;;;;;17.63;29.17;96968.59;10416503;28;3281;-46
2023/01/24 14:07:38;;;;;;;;;;;;;;;17.64;29.15;96964.16;10413900;28;3271;-49
2023/01/24 14:12:38;;;;;;;;;;;;;;;17.64;29.13;96975.41;10435790;28;3348;-47
2023/01/24 14:17:39;;;;;;;;;;;;;;;17.63;29.17;96973.84;10428757;28;3422;-48
2023/01/24 14:22:39;;;;;;;;;;;;;;;17.64;29.15;96983.28;10434360;28;3268;-50
2023/01/24 14:27:51;;;;;;;;;;;;;;;17.64;29.09;96982.50;10428241;28;3232;-49
2023/01/24 14:33:13;;;;;;;;;;;;;;;17.62;29.25;96985.31;10422265;28;3366;-51
2023/01/24 14:38:17;;;;;;;;;;;;;;;17.62;29.24;96985.31;10404387;28;3316;-47
2023/01/24 14:43:17;;;;;;;;;;;;;;;17.64;29.25;96996.38;10426349;28;3299;-47
2023/01/24 14:48:24;;;;;;;;;;;;;;;17.66;29.17;97002.22;10410830;28;3331;-47
2023/01/24 14:53:25;;;;;;;;;;;;;;;17.71;29.17;97015.47;10426351;28;3360;-48
2023/01/24 14:58:26;;;;;;;;;;;;;;;17.77;29.24;97017.19;10412547;28;3244;-50
2023/01/24 15:03:28;;;;;;;;;;;;;;;17.87;29.20;97021.88;10414698;28;3256;-48
2023/01/24 15:08:28;;;;;;;;;;;;;;;17.95;29.21;97031.25;10417434;28;3318;-51
2023/01/24 15:13:30;;;;;;;;;;;;;;;18.00;29.11;97032.16;10421729;28;3345;-51
2023/01/24 15:18:40;;;;;;;;;;;;;;;18.07;28.96;97026.81;10423707;28;3260;-47
2023/01/24 15:23:41;;;;;;;;;;;;;;;18.13;29.10;97026.72;10413585;28;3294;-49
2023/01/24 15:28:41;;;;;;;;;;;;;;;18.18;28.96;97026.81;10417198;28;3422;-49
2023/01/24 15:33:42;;;;;;;;;;;;;;;18.23;28.90;97034.00;10412428;28;3315;-49
2023/01/24 15:38:44;;;;;;;;;;;;;;;18.29;28.94;97033.09;10410590;28;3307;-48
2023/01/24 15:44:02;;;;;;;;;;;;;;;18.33;28.90;97042.09;10444376;28;3243;-47
2023/01/24 15:49:22;;;;;;;;;;;;;;;18.38;28.93;97039.63;10411315;28;3237;-47
2023/01/24 15:54:26;;;;;;;;;;;;;;;18.41;28.89;97049.66;10421667;28;3304;-46
2023/01/24 15:59:26;;;;;;;;;;;;;;;18.46;28.80;97047.19;10411790;28;3319;-46
2023/01/24 16:04:27;;;;;;;;;;;;;;;18.47;28.82;97049.56;10412757;28;3407;-47
2023/01/24 16:09:27;;;;;;;;;;;;;;;18.51;28.80;97049.91;10417593;28;3581;-48
2023/01/24 16:14:28;;;;;;;;;;;;;;;18.54;28.80;97057.34;10416817;28;3231;-46
2023/01/24 16:19:29;;;;;;;;;;;;;;;18.57;28.80;97060.28;10423031;28;3251;-46
2023/01/24 16:24:29;;;;;;;;;;;;;;;18.58;28.87;97055.84;10421802;28;3227;-46
2023/01/24 16:29:29;;;;;;;;;;;;;;;18.59;28.76;97052.19;10421130;28;3287;-48
2023/01/24 16:34:30;;;;;;;;;;;;;;;18.64;28.82;97061.00;10421911;28;3335;-47
2023/01/24 16:39:30;;;;;;;;;;;;;;;18.67;28.80;97059.72;10423652;28;3276;-48
2023/01/24 16:44:34;;;;;;;;;;;;;;;18.67;28.87;97071.03;10420120;28;3283;-46
2023/01/24 16:49:34;;;;;;;;;;;;;;;18.72;28.77;97075.59;10421985;28;3303;-47
2023/01/24 16:54:34;;;;;;;;;;;;;;;18.73;28.78;97074.56;10421651;28;3334;-47
2023/01/24 16:59:34;;;;;;;;;;;;;;;18.77;28.70;97082.78;10430431;28;3343;-47
2023/01/24 17:04:35;;;;;;;;;;;;;;;18.78;28.83;97082.53;10424593;28;3264;-46
2023/01/24 17:09:35;;;;;;;;;;;;;;;18.78;28.78;97077.28;10417207;28;3574;-46
2023/01/24 17:14:35;;;;;;;;;;;;;;;18.80;28.74;97077.06;10432429;28;3291;-45
2023/01/24 17:19:36;;;;;;;;;;;;;;;18.83;28.62;97080.03;10417643;28;3355;-45
2023/01/24 17:24:37;;;;;;;;;;;;;;;18.85;28.86;97083.25;10425225;28;3493;-46
2023/01/24 17:29:37;;;;;;;;;;;;;;;18.87;28.81;97085.63;10426895;28;3306;-48
2023/01/24 17:34:37;;;;;;;;;;;;;;;18.90;28.80;97090.44;10423281;28;3367;-45
2023/01/24 17:39:37;;;;;;;;;;;;;;;18.94;28.69;97089.72;10439775;28;3315;-49
2023/01/24 17:44:38;;;;;;;;;;;;;;;18.96;28.77;97092.91;10437164;28;3315;-46
2023/01/24 17:49:38;;;;;;;;;;;;;;;19.01;28.94;97093.03;10436033;28;3355;-49
2023/01/24 17:54:38;;;;;;;;;;;;;;;19.05;29.02;97088.09;10435349;28;3292;-49
2023/01/24 17:59:39;;;;;;;;;;;;;;;19.07;29.00;97086.84;10433391;28;3418;-49
2023/01/24 18:04:39;;;;;;;;;;;;;;;19.12;28.97;97094.84;10420508;28;3213;-47
2023/01/24 18:09:39;;;;;;;;;;;;;;;19.14;29.06;97094.63;10433109;28;3600;-47
2023/01/24 18:14:40;;;;;;;;;;;;;;;19.18;29.09;97088.66;10425507;28;3302;-47
2023/01/24 18:19:41;;;;;;;;;;;;;;;19.20;29.11;97080.53;10434577;28;3510;-46
2023/01/24 18:24:41;;;;;;;;;;;;;;;19.24;29.12;97085.09;10428758;28;3283;-51
2023/01/24 18:29:41;;;;;;;;;;;;;;;19.26;29.01;97087.50;10422298;28;3327;-47
2023/01/24 18:34:41;;;;;;;;;;;;;;;19.29;29.28;97087.00;10423923;28;3356;-46
2023/01/24 18:39:42;;;;;;;;;;;;;;;19.32;29.04;97082.13;10434054;28;3415;-48
2023/01/24 18:44:42;;;;;;;;;;;;;;;19.35;29.15;97086.91;10431608;28;3334;-49
2023/01/24 18:49:43;;;;;;;;;;;;;;;19.37;29.16;97090.13;10432586;28;3596;-46
2023/01/24 18:54:43;;;;;;;;;;;;;;;19.38;29.46;97081.22;10429925;28;3380;-48
2023/01/24 18:59:43;;;;;;;;;;;;;;;19.40;29.17;97079.16;10446450;28;3301;-46
2023/01/24 19:04:43;;;;;;;;;;;;;;;19.45;29.28;97078.44;10438657;28;3296;-45
2023/01/24 19:09:44;;;;;;;;;;;;;;;19.45;29.33;97076.59;10422608;28;3605;-49
2023/01/24 19:14:45;;;;;;;;;;;;;;;19.47;29.13;97071.91;10431659;28;3368;-47
2023/01/24 19:19:45;;;;;;;;;;;;;;;19.47;29.12;97074.53;10430344;28;3315;-46
2023/01/24 19:24:45;;;;;;;;;;;;;;;19.49;29.10;97084.84;10426066;28;3332;-47
2023/01/24 19:29:46;;;;;;;;;;;;;;;19.49;29.26;97082.97;10428830;28;3304;-48
2023/01/24 19:34:46;;;;;;;;;;;;;;;19.49;29.31;97082.97;10437974;28;3240;-46
2023/01/24 19:39:46;;;;;;;;;;;;;;;19.52;29.31;97089.59;10433786;28;3286;-46
2023/01/24 19:44:46;;;;;;;;;;;;;;;19.55;29.38;97090.97;10433636;28;3291;-48
2023/01/24 19:49:47;;;;;;;;;;;;;;;19.55;29.43;97091.78;10429349;28;3592;-50
2023/01/24 19:54:47;;;;;;;;;;;;;;;19.51;29.18;97097.75;10418416;28;3267;-47
2023/01/24 19:59:47;;;;;;;;;;;;;;;19.51;29.02;97095.09;10423232;28;3267;-48
2023/01/24 20:04:47;;;;;;;;;;;;;;;19.48;29.41;97097.19;10431215;28;3314;-48
2023/01/24 20:09:48;;;;;;;;;;;;;;;19.51;29.24;97108.25;10422928;28;3345;-46
2023/01/24 20:14:48;;;;;;;;;;;;;;;19.49;29.29;97101.38;10429710;28;3303;-47
2023/01/24 20:19:48;;;;;;;;;;;;;;;19.51;29.20;97100.38;10425787;28;3324;-47
2023/01/24 20:24:48;;;;;;;;;;;;;;;19.49;29.22;97101.38;10433608;28;3283;-47
2023/01/24 20:29:49;;;;;;;;;;;;;;;19.49;29.05;97101.38;10432247;28;3414;-47
2023/01/24 20:34:49;;;;;;;;;;;;;;;19.51;29.46;97092.47;10441188;28;3311;-50
2023/01/24 20:39:49;;;;;;;;;;;;;;;19.48;29.22;97086.66;10427505;28;3288;-49
2023/01/24 20:44:50;;;;;;;;;;;;;;;19.44;29.26;97092.63;10417671;28;3441;-49
2023/01/24 20:49:50;;;;;;;;;;;;;;;19.45;29.26;97095.00;10418507;28;3811;-50
2023/01/24 20:54:52;;;;;;;;;;;;;;;19.47;29.34;97100.06;10421198;28;3395;-46
2023/01/24 20:59:53;;;;;;;;;;;;;;;19.47;29.64;97092.94;10419319;28;3311;-48
2023/01/24 21:04:53;;;;;;;;;;;;;;;19.46;29.66;97093.19;10421768;28;3503;-48
2023/01/24 21:09:53;;;;;;;;;;;;;;;19.42;29.67;97087.59;10422425;28;3315;-46
2023/01/24 21:14:53;;;;;;;;;;;;;;;19.41;29.97;97083.34;10422765;28;3264;-45
2023/01/24 21:19:54;;;;;;;;;;;;;;;19.34;29.90;97082.72;10443183;28;3323;-46
2023/01/24 21:24:54;;;;;;;;;;;;;;;19.31;29.89;97083.13;10441973;28;3298;-47
2023/01/24 21:29:54;;;;;;;;;;;;;;;19.26;29.95;97085.69;10425597;28;3284;-49
2023/01/24 21:34:54;;;;;;;;;;;;;;;19.19;30.06;97090.25;10426672;28;3320;-47
2023/01/24 21:39:55;;;;;;;;;;;;;;;19.14;30.48;97103.31;10436973;28;3419;-47
2023/01/24 21:44:55;;;;;;;;;;;;;;;19.11;30.05;97090.63;10425446;28;3310;-47
2023/01/24 21:49:55;;;;;;;;;;;;;;;19.08;30.63;97096.31;10427454;28;3324;-48
2023/01/24 21:54:56;;;;;;;;;;;;;;;19.01;30.93;97082.53;10444884;28;3300;-47
2023/01/24 21:59:56;;;;;;;;;;;;;;;18.99;30.84;97089.84;10443656;28;3354;-47
2023/01/24 22:04:57;;;;;;;;;;;;;;;18.95;30.67;97080.81;10445422;28;3299;-51
2023/01/24 22:09:58;;;;;;;;;;;;;;;18.90;30.94;97077.31;10445007;28;3282;-47
2023/01/24 22:14:59;;;;;;;;;;;;;;;18.87;30.88;97075.94;10443861;28;3267;-46
2023/01/24 22:19:59;;;;;;;;;;;;;;;18.81;31.02;97087.34;10444538;28;3288;-46
2023/01/24 22:25:16;;;;;;;;;;;;;;;18.76;31.10;97092.50;10441253;28;3353;-48
2023/01/24 22:30:20;;;;;;;;;;;;;;;18.74;31.04;97076.16;10435637;28;3268;-47
2023/01/24 22:35:21;;;;;;;;;;;;;;;18.72;31.12;97077.41;10432445;28;3310;-47
2023/01/24 22:40:22;;;;;;;;;;;;;;;18.65;31.20;97078.31;10441182;28;3284;-46
2023/01/24 22:45:22;;;;;;;;;;;;;;;18.66;31.12;97081.75;10439173;28;3314;-47
2023/01/24 22:50:23;;;;;;;;;;;;;;;18.61;31.14;97071.13;10433165;28;3344;-46
2023/01/24 22:55:23;;;;;;;;;;;;;;;18.53;31.13;97066.22;10423583;28;3273;-47
2023/01/24 23:00:23;;;;;;;;;;;;;;;18.46;31.06;97069.00;10425048;28;3438;-47
2023/01/24 23:05:23;;;;;;;;;;;;;;;18.42;31.03;97067.00;10424785;28;3379;-48
2023/01/24 23:10:24;;;;;;;;;;;;;;;18.37;31.07;97065.06;10428580;28;3386;-48
2023/01/24 23:26:01;;;;;;;;;;;;;;;18.21;31.04;97044.75;10427131;28;3311;-49
2023/01/24 23:31:07;;;;;;;;;;;;;;;18.17;30.94;97048.84;10420100;28;3422;-49
2023/01/24 23:36:08;;;;;;;;;;;;;;;18.15;30.88;97047.47;10432611;28;3292;-46
2023/01/24 23:41:08;;;;;;;;;;;;;;;18.11;30.82;97043.69;10416476;28;3401;-47
2023/01/24 23:46:09;;;;;;;;;;;;;;;18.07;30.92;97034.69;10418260;28;3331;-47
2023/01/24 23:51:09;;;;;;;;;;;;;;;18.04;30.87;97033.31;10420495;28;3311;-46
2023/01/24 23:56:10;;;;;;;;;;;;;;;18.01;30.91;97032.97;10417661;28;3314;-45
